Terminal Aerodrome Forecast
Issued by NWS

Home | Current Version | Previous Version | Graphics & Text | Print | Product List | Glossary On
Versions: 1 2 3 4 5 6 7 8 9 10 11 12 13 14 15 16 17 18 19 20 21 22 23 24 25 26
056
FTUS43 KABR 071735
TAFATY
TAF
KATY 071735Z 0718/0818 31026G36KT 4SM -SN BLSN OVC025
      TEMPO 0719/0721 1 1/2SM -SN BLSN OVC015
     FM072100 32029G41KT 1/2SM SN BLSN OVC010
     FM080600 34027G38KT 1SM -SN BLSN OVC015
     FM080900 34026G36KT 4SM -SN BLSN OVC015
     FM081500 34026G36KT 5SM BLSN BKN020=

USA.gov is the U.S. government's official web portal to all federal, state and local government web resources and services.